Westrac — WTH4325 — position and weather

sailwx.info

Track history (hours):
 
Tides and Currents Weather Stations Pressure Air Temp Water Temp Dewpoint Dewpoint Depression Visibility Wind Speed Wind Dir Waves Ship Positions

Westrac

Owner: WESTERN TOWBOAT CO, SEATTLE, WA. More information available from US FCC via Universal Licensing System and Coast Guard Vessel Documentation Center.

Last reported at 2015-Jul-30 18:51 UTC. Time now 2015-Jul-31 03:00 UTC.
Position N 47°34' W 122°21'.

Length 23 m; draft 5 m.

Type: Tug. MMSI: 366993010.

Date/timePositionNaut miles runAvg speedWind from/ knotsBaromVisibWave heightAir tempDewpointWater temp
2015-Jul-30 18:51N 47°34' W 122°21'2 5.5
2015-Jul-30 18:33N 47°36' W 122°22'0 2.6
2015-Jul-30 18:32N 47°36' W 122°22'2 1.8
2015-Jul-30 17:33N 47°34' W 122°21'0 0.2
2015-Jul-30 17:32N 47°34' W 122°21'0 0.0
2015-Jul-30 16:33N 47°34' W 122°21'0 0.0
2015-Jul-30 16:31N 47°34' W 122°21'1 0.8
2015-Jul-30 15:33N 47°33' W 122°20'0 0.0
2015-Jul-30 15:32N 47°33' W 122°20'3 2.7
2015-Jul-30 14:33N 47°36' W 122°22'0 0.4
2015-Jul-30 14:32N 47°36' W 122°22'2 0.1
2015-Jul-30 03:00N 47°34' W 122°21'0 0.3
2015-Jul-30 02:33N 47°34' W 122°21'0 4.1
2015-Jul-30 02:30N 47°34' W 122°21'1 1.4
2015-Jul-30 01:33N 47°35' W 122°22'0 6.4
2015-Jul-30 01:30N 47°35' W 122°22'2 2.0
2015-Jul-30 00:33N 47°33' W 122°20'0 0.0
2015-Jul-30 00:30N 47°33' W 122°20'1 0.7
2015-Jul-29 23:34N 47°33' W 122°21'1 8.4
2015-Jul-29 23:30N 47°34' W 122°21'0 0.2
2015-Jul-29 22:34N 47°34' W 122°21'1 8.1
2015-Jul-29 22:29N 47°33' W 122°21'1 0.7
2015-Jul-29 21:32N 47°34' W 122°21'0 0.0
2015-Jul-29 21:29N 47°34' W 122°21'0 0.0
2015-Jul-29 20:31N 47°34' W 122°21'0 0.2
2015-Jul-29 20:29N 47°34' W 122°21'0 0.0
2015-Jul-29 19:33N 47°34' W 122°21'0 0.0
2015-Jul-29 19:29N 47°34' W 122°21'2 1.8
2015-Jul-29 18:34N 47°36' W 122°22'0 0.7
2015-Jul-29 18:29N 47°36' W 122°22'2 2.6
2015-Jul-29 17:33N 47°33' W 122°21'0 0.1
2015-Jul-29 17:29N 47°33' W 122°21'0 0.0
2015-Jul-29 15:42N 47°33' W 122°21'1 5.4
2015-Jul-29 15:33N 47°34' W 122°21'0 6.8
2015-Jul-29 15:32N 47°34' W 122°21'1 1.3
2015-Jul-29 14:33N 47°35' W 122°21'0 0.3
2015-Jul-29 14:32N 47°35' W 122°21'2 1.9
2015-Jul-29 13:33N 47°34' W 122°21'0 5.6
2015-Jul-29 13:32N 47°33' W 122°21'1 0.1
2015-Jul-29 03:56N 47°34' W 122°21'1 3.2
2015-Jul-29 03:33N 47°35' W 122°22'0 7.8
2015-Jul-29 03:31N 47°35' W 122°22'1 1.1
2015-Jul-29 02:33N 47°34' W 122°21'0 0.0
2015-Jul-29 02:31N 47°34' W 122°21'1 1.3
2015-Jul-29 01:33N 47°35' W 122°22'0 7.6
2015-Jul-29 01:31N 47°35' W 122°22'1 1.3
2015-Jul-29 00:33N 47°34' W 122°21'0 7.0
2015-Jul-29 00:31N 47°34' W 122°21'0 0.1
2015-Jul-28 23:33N 47°34' W 122°21'0 3.0
2015-Jul-28 23:31N 47°34' W 122°21'1 0.8
2015-Jul-28 22:33N 47°33' W 122°21'0 0.0
2015-Jul-28 22:31N 47°33' W 122°21'0 0.0
2015-Jul-28 21:33N 47°33' W 122°21'0 2.9
2015-Jul-28 21:30N 47°33' W 122°21'1 1.6
2015-Jul-28 20:33N 47°35' W 122°22'0 6.9
2015-Jul-28 20:30N 47°35' W 122°22'1 1.2
2015-Jul-28 19:33N 47°34' W 122°21'0 7.5
2015-Jul-28 19:30N 47°34' W 122°21'0 0.1
2015-Jul-28 18:33N 47°34' W 122°21'0 0.0
2015-Jul-28 04:28N 47°34' W 122°21'0 0.0
2015-Jul-28 04:27N 47°34' W 122°21'0 0.5
2015-Jul-28 03:33N 47°34' W 122°21'0 0.0
2015-Jul-28 03:33N 47°34' W 122°21'0 0.4
2015-Jul-28 02:33N 47°34' W 122°21'0 0.0
2015-Jul-28 02:33N 47°34' W 122°21'0 0.0
2015-Jul-28 01:33N 47°34' W 122°21'0 0.0
2015-Jul-28 01:33N 47°34' W 122°21'0 0.0
2015-Jul-28 00:33N 47°34' W 122°21'0 0.0
2015-Jul-28 00:33N 47°34' W 122°21'0 0.3
2015-Jul-27 23:33N 47°34' W 122°21'0 6.4
2015-Jul-27 23:32N 47°34' W 122°21'1 0.5
2015-Jul-27 22:33N 47°33' W 122°21'0 0.3
2015-Jul-27 22:32N 47°33' W 122°21'1 0.9
2015-Jul-27 21:33N 47°34' W 122°21'0 0.0
2015-Jul-27 21:32N 47°34' W 122°21'0 0.0
2015-Jul-27 20:33N 47°34' W 122°21'0 0.4
2015-Jul-27 20:32N 47°34' W 122°21'0 0.5
2015-Jul-27 19:33N 47°34' W 122°21'0 5.9
2015-Jul-27 19:32N 47°34' W 122°21'1 1.2
2015-Jul-27 18:33N 47°33' W 122°20'0 0.0
2015-Jul-27 18:32N 47°33' W 122°20'3 2.8
2015-Jul-27 17:33N 47°35' W 122°21'0 0.0
2015-Jul-27 17:32N 47°35' W 122°21'1 0.9
2015-Jul-27 16:33N 47°35' W 122°22'0 0.3
2015-Jul-27 16:32N 47°35' W 122°22'0 0.0
2015-Jul-27 15:33N 47°35' W 122°22'0 0.3
2015-Jul-27 15:32N 47°35' W 122°22'2 1.8
2015-Jul-27 14:33N 47°34' W 122°21'0 0.0
2015-Jul-27 14:31N 47°34' W 122°21'0 0.1
2015-Jul-27 13:33N 47°34' W 122°21'0 0.2
2015-Jul-27 13:31N 47°34' W 122°21'0 0.0
2015-Jul-27 12:33N 47°34' W 122°21'0 0.0
2015-Jul-27 12:32N 47°34' W 122°21'0 0.0
2015-Jul-27 11:33N 47°34' W 122°21'0 0.0
2015-Jul-27 11:31N 47°34' W 122°21'0 0.0
2015-Jul-27 10:33N 47°34' W 122°21'0 0.2
2015-Jul-27 10:31N 47°34' W 122°21'0 0.0
2015-Jul-27 09:33N 47°34' W 122°21'0 0.0
2015-Jul-27 09:31N 47°34' W 122°21'1 1.1
2015-Jul-27 08:33N 47°33' W 122°20'0 0.0
2015-Jul-27 08:31N 47°33' W 122°20'3 2.8
2015-Jul-27 07:33N 47°36' W 122°22'0 0.0
2015-Jul-27 07:31N 47°36' W 122°22'0 0.1
2015-Jul-27 06:33N 47°35' W 122°22'0 0.0
2015-Jul-27 06:31N 47°35' W 122°22'1 2.3
2015-Jul-27 06:06N 47°35' W 122°22'2 3.3
2015-Jul-27 05:33N 47°33' W 122°20'1 1.4
2015-Jul-27 04:33N 47°34' W 122°21'0 7.7
2015-Jul-27 04:31N 47°34' W 122°21'0 0.2
2015-Jul-27 03:33N 47°34' W 122°21'0 0.0
2015-Jul-27 03:31N 47°34' W 122°21'0 0.0
2015-Jul-27 02:33N 47°34' W 122°21'0 0.1
2015-Jul-27 02:30N 47°34' W 122°21'0 0.0
2015-Jul-27 01:33N 47°34' W 122°21'0 0.1
2015-Jul-27 01:30N 47°34' W 122°21'0 0.0
2015-Jul-27 00:33N 47°34' W 122°21'0 0.0
2015-Jul-27 00:30N 47°34' W 122°21'0 0.0
2015-Jul-26 23:33N 47°34' W 122°21'0 0.1
2015-Jul-26 23:30N 47°34' W 122°21'0 0.0
2015-Jul-26 22:33N 47°34' W 122°21'0 0.1
2015-Jul-26 22:30N 47°34' W 122°21'0 0.0
2015-Jul-26 21:33N 47°34' W 122°21'0 0.0
2015-Jul-26 21:30N 47°34' W 122°21'0 0.0
2015-Jul-26 20:33N 47°34' W 122°21'0 0.0
2015-Jul-26 20:30N 47°34' W 122°21'0 0.0
2015-Jul-26 19:33N 47°34' W 122°21'0 0.0
2015-Jul-26 19:30N 47°34' W 122°21'0 0.0
2015-Jul-26 18:33N 47°34' W 122°21'0 0.0
2015-Jul-26 18:30N 47°34' W 122°21'0 0.0
2015-Jul-26 17:33N 47°34' W 122°21'0 0.1
2015-Jul-26 17:30N 47°34' W 122°21'0 0.0
2015-Jul-26 16:33N 47°34' W 122°21'0 0.0
2015-Jul-26 16:29N 47°34' W 122°21'0 0.0
2015-Jul-26 15:33N 47°34' W 122°21'0 0.0
2015-Jul-26 14:30N 47°34' W 122°21'0 0.0
2015-Jul-26 13:05N 47°34' W 122°21'0 0.1
2015-Jul-26 12:59N 47°34' W 122°21'0 0.0
2015-Jul-26 12:33N 47°34' W 122°21'0 0.1
2015-Jul-26 12:29N 47°34' W 122°21'0 0.0
2015-Jul-26 11:33N 47°34' W 122°21'0 0.1
2015-Jul-26 11:29N 47°34' W 122°21'0 0.0
2015-Jul-26 10:33N 47°34' W 122°21'0 0.0
2015-Jul-26 10:29N 47°34' W 122°21'0 0.0
2015-Jul-26 09:33N 47°34' W 122°21'0 0.1
2015-Jul-26 09:28N 47°34' W 122°21'0 0.0
2015-Jul-26 08:34N 47°34' W 122°21'0 0.7
2015-Jul-26 08:33N 47°34' W 122°21'0 0.0
2015-Jul-26 07:33N 47°34' W 122°21'0 0.0
2015-Jul-26 07:33N 47°34' W 122°21'0 0.0
2015-Jul-26 06:33N 47°34' W 122°21'0 0.0
2015-Jul-26 06:33N 47°34' W 122°21'0 0.0
2015-Jul-26 06:08N 47°34' W 122°21'0 0.0
2015-Jul-26 05:33N 47°34' W 122°21'0 0.0
2015-Jul-26 04:33N 47°34' W 122°21'0 0.0
2015-Jul-26 04:33N 47°34' W 122°21'0 0.0
2015-Jul-26 03:33N 47°34' W 122°21'0 0.0
2015-Jul-26 03:33N 47°34' W 122°21'0 0.1
2015-Jul-26 02:33N 47°34' W 122°21'0 0.0
2015-Jul-26 02:32N 47°34' W 122°21'0 0.2
2015-Jul-26 01:33N 47°34' W 122°21'0 1.4
2015-Jul-26 01:33N 47°34' W 122°21'0 0.2
2015-Jul-26 00:33N 47°34' W 122°21'0 0.0
2015-Jul-26 00:33N 47°34' W 122°21'0 0.0
2015-Jul-25 23:33N 47°34' W 122°21'0 0.0
2015-Jul-25 23:33N 47°34' W 122°21'1 1.4
2015-Jul-25 22:33N 47°33' W 122°20'0 1.0
2015-Jul-25 22:32N 47°33' W 122°20'3 3.1
2015-Jul-25 21:33N 47°36' W 122°22'0 8.4
2015-Jul-25 21:32N 47°35' W 122°22'2 1.6
2015-Jul-25 20:33N 47°34' W 122°21'0 0.3
2015-Jul-25 20:32N 47°34' W 122°21'0 0.0
2015-Jul-25 19:33N 47°34' W 122°21'0 0.0
2015-Jul-25 19:32N 47°34' W 122°21'0 0.0
2015-Jul-25 18:33N 47°34' W 122°21'0 0.0
2015-Jul-25 18:32N 47°34' W 122°21'0 0.0
2015-Jul-25 17:33N 47°34' W 122°21'0 0.0
2015-Jul-25 17:32N 47°34' W 122°21'0 0.0
2015-Jul-25 16:33N 47°34' W 122°21'0 0.2
2015-Jul-25 16:32N 47°34' W 122°21'0 0.0
2015-Jul-25 15:33N 47°34' W 122°21'0 0.3
2015-Jul-25 15:32N 47°34' W 122°21'0 0.0
2015-Jul-25 14:33N 47°34' W 122°21'0 0.0
2015-Jul-25 14:32N 47°34' W 122°21'0 0.0
2015-Jul-25 13:33N 47°34' W 122°21'0 0.3
2015-Jul-25 13:32N 47°34' W 122°21'0 0.0
2015-Jul-25 12:33N 47°34' W 122°21'0 0.0
2015-Jul-25 12:31N 47°34' W 122°21'0 0.0
2015-Jul-25 11:33N 47°34' W 122°21'0 0.2
2015-Jul-25 11:31N 47°34' W 122°21'0 0.0
2015-Jul-25 10:33N 47°34' W 122°21'0 0.0
2015-Jul-25 10:31N 47°34' W 122°21'0 0.0
2015-Jul-25 09:33N 47°34' W 122°21'0 0.2
2015-Jul-25 09:31N 47°34' W 122°21'0 0.0
2015-Jul-25 08:33N 47°34' W 122°21'0 0.2
2015-Jul-25 08:31N 47°34' W 122°21'0 0.0
2015-Jul-25 07:33N 47°34' W 122°21'0 0.0
2015-Jul-25 07:31N 47°34' W 122°21'0 0.0
2015-Jul-25 06:33N 47°34' W 122°21'0 0.2
2015-Jul-25 06:31N 47°34' W 122°21'0 0.0
2015-Jul-25 06:06N 47°34' W 122°21'0 0.0
2015-Jul-25 05:33N 47°34' W 122°21'0 0.0
2015-Jul-25 04:33N 47°34' W 122°21'0 0.1
2015-Jul-25 04:30N 47°34' W 122°21'1 1.1
2015-Jul-25 03:33N 47°33' W 122°20'0 0.0
2015-Jul-25 03:30N 47°33' W 122°20'1 1.1
2015-Jul-25 02:33N 47°34' W 122°21'0 4.7
2015-Jul-25 02:30N 47°34' W 122°21'1 0.8
2015-Jul-25 01:33N 47°33' W 122°21'0 0.2
2015-Jul-25 01:30N 47°33' W 122°21'0 0.5
2015-Jul-25 00:33N 47°33' W 122°20'0 0.1
2015-Jul-25 00:25N 47°33' W 122°20'3 4.1
2015-Jul-24 23:33N 47°36' W 122°22'0 3.6
2015-Jul-24 23:30N 47°36' W 122°22'2 2.4
2015-Jul-24 22:33N 47°34' W 122°21'0 0.0
2015-Jul-24 22:25N 47°34' W 122°21'0 0.0
2015-Jul-24 21:33N 47°34' W 122°21'0 0.0
2015-Jul-24 21:09N 47°34' W 122°21'1 1.0
2015-Jul-24 20:33N 47°34' W 122°21'1 9.1
2015-Jul-24 20:30N 47°33' W 122°20'1 0.6
2015-Jul-24 19:33N 47°33' W 122°20'0 3.3
2015-Jul-24 19:29N 47°33' W 122°20'3 2.9
2015-Jul-24 18:33N 47°35' W 122°21'0 0.6
2015-Jul-24 18:29N 47°35' W 122°21'1 0.8
2015-Jul-24 17:33N 47°35' W 122°21'0 5.3
2015-Jul-24 17:29N 47°34' W 122°21'0 0.3
2015-Jul-24 16:33N 47°34' W 122°21'0 0.1
2015-Jul-24 16:29N 47°34' W 122°21'0 0.0
2015-Jul-23 21:16N 47°34' W 122°21'0 8.3
2015-Jul-23 21:15N 47°34' W 122°21'1 1.1
2015-Jul-23 20:33N 47°35' W 122°21'0 5.3
2015-Jul-23 20:28N 47°35' W 122°22'3 2.8
2015-Jul-23 19:33N 47°33' W 122°20'0 3.2
2015-Jul-23 19:24N 47°32' W 122°20'4 4.7
2015-Jul-23 18:33N 47°36' W 122°22'0 7.7
2015-Jul-23 18:33N 47°36' W 122°22'1 0.5
2015-Jul-23 17:33N 47°35' W 122°22'0 8.9
2015-Jul-23 17:33N 47°35' W 122°22'1 0.1
2015-Jul-23 02:29N 47°34' W 122°21'0 5.0
2015-Jul-23 02:26N 47°34' W 122°21'1 1.2
2015-Jul-23 01:33N 47°33' W 122°20'0 0.2
2015-Jul-23 01:31N 47°33' W 122°20'2 1.6
2015-Jul-23 00:33N 47°34' W 122°21'0 8.0
2015-Jul-23 00:31N 47°35' W 122°22'1 0.7
2015-Jul-22 23:33N 47°34' W 122°21'0 9.1
2015-Jul-22 23:30N 47°34' W 122°21'1 0.6
2015-Jul-22 22:33N 47°34' W 122°21'0 0.0
2015-Jul-22 22:30N 47°34' W 122°21'1 1.2
2015-Jul-22 21:33N 47°35' W 122°21'0 0.0
2015-Jul-22 21:29N 47°35' W 122°21'0 0.0
2015-Jul-22 20:33N 47°35' W 122°21'0 0.0
2015-Jul-22 20:29N 47°35' W 122°21'1 0.7
2015-Jul-22 19:33N 47°35' W 122°22'0 0.0
2015-Jul-22 19:33N 47°35' W 122°22'2 2.5
2015-Jul-22 18:33N 47°33' W 122°21'0 0.0
2015-Jul-22 18:33N 47°33' W 122°21'1 0.9
2015-Jul-22 17:33N 47°34' W 122°21'0 0.0
2015-Jul-22 17:33N 47°34' W 122°21'0 0.0
2015-Jul-22 16:33N 47°34' W 122°21'0 0.4
2015-Jul-22 16:32N 47°34' W 122°21'1 0.6
2015-Jul-22 15:33N 47°34' W 122°21'0 9.2
2015-Jul-22 15:32N 47°34' W 122°21'0 0.1
2015-Jul-22 14:33N 47°34' W 122°21'0 5.3
2015-Jul-22 14:31N 47°34' W 122°21'0 0.0
2015-Jul-22 00:30N 47°34' W 122°21'0 7.8
2015-Jul-22 00:28N 47°34' W 122°21'2 2.1
2015-Jul-21 23:33N 47°35' W 122°22'0 0.0
2015-Jul-21 23:33N 47°35' W 122°22'2 1.5
2015-Jul-21 22:31N 47°34' W 122°21'0 0.1
2015-Jul-21 22:28N 47°34' W 122°21'0 0.0
2015-Jul-21 21:33N 47°34' W 122°21'0 0.0
2015-Jul-21 21:32N 47°34' W 122°21'0 0.0
2015-Jul-21 20:33N 47°34' W 122°21'0 0.0
2015-Jul-21 20:33N 47°34' W 122°21'1 0.8
2015-Jul-21 19:33N 47°33' W 122°21'0 7.7
2015-Jul-21 19:32N 47°33' W 122°21'3 3.0
2015-Jul-21 18:33N 47°36' W 122°22'0 2.5
2015-Jul-21 18:32N 47°36' W 122°22'0 0.5
2015-Jul-21 17:33N 47°35' W 122°22'0 0.3
2015-Jul-21 17:32N 47°35' W 122°22'1 0.8
2015-Jul-21 16:33N 47°35' W 122°22'0 6.9
2015-Jul-21 16:32N 47°35' W 122°22'1 0.9
2015-Jul-21 15:33N 47°35' W 122°22'0 0.4
2015-Jul-21 15:32N 47°35' W 122°22'2 2.3
2015-Jul-21 14:33N 47°33' W 122°21'0 8.3
2015-Jul-21 14:31N 47°34' W 122°21'  
Track history (hours):
 
Tides and Currents Weather Stations Pressure Air Temp Water Temp Dewpoint Dewpoint Depression Visibility Wind Speed Wind Dir Waves Ship Positions

Westrac

Owner: WESTERN TOWBOAT CO, SEATTLE, WA. More information available from US FCC via Universal Licensing System and Coast Guard Vessel Documentation Center.

Last reported at 2015-Jul-30 18:51 UTC. Time now 2015-Jul-31 03:00 UTC.
Position N 47°34' W 122°21'.

Length 23 m; draft 5 m.

Type: Tug. MMSI: 366993010.

Date/timePositionNaut miles runAvg speedWind from/ knotsBaromVisibWave heightAir tempDewpointWater temp
2015-Jul-30 18:51N 47°34' W 122°21'2 5.5
2015-Jul-30 18:33N 47°36' W 122°22'0 2.6
2015-Jul-30 18:32N 47°36' W 122°22'2 1.8
2015-Jul-30 17:33N 47°34' W 122°21'0 0.2
2015-Jul-30 17:32N 47°34' W 122°21'0 0.0
2015-Jul-30 16:33N 47°34' W 122°21'0 0.0
2015-Jul-30 16:31N 47°34' W 122°21'1 0.8
2015-Jul-30 15:33N 47°33' W 122°20'0 0.0
2015-Jul-30 15:32N 47°33' W 122°20'3 2.7
2015-Jul-30 14:33N 47°36' W 122°22'0 0.4
2015-Jul-30 14:32N 47°36' W 122°22'2 0.1
2015-Jul-30 03:00N 47°34' W 122°21'0 0.3
2015-Jul-30 02:33N 47°34' W 122°21'0 4.1
2015-Jul-30 02:30N 47°34' W 122°21'1 1.4
2015-Jul-30 01:33N 47°35' W 122°22'0 6.4
2015-Jul-30 01:30N 47°35' W 122°22'2 2.0
2015-Jul-30 00:33N 47°33' W 122°20'0 0.0
2015-Jul-30 00:30N 47°33' W 122°20'1 0.7
2015-Jul-29 23:34N 47°33' W 122°21'1 8.4
2015-Jul-29 23:30N 47°34' W 122°21'0 0.2
2015-Jul-29 22:34N 47°34' W 122°21'1 8.1
2015-Jul-29 22:29N 47°33' W 122°21'1 0.7
2015-Jul-29 21:32N 47°34' W 122°21'0 0.0
2015-Jul-29 21:29N 47°34' W 122°21'0 0.0
2015-Jul-29 20:31N 47°34' W 122°21'0 0.2
2015-Jul-29 20:29N 47°34' W 122°21'0 0.0
2015-Jul-29 19:33N 47°34' W 122°21'0 0.0
2015-Jul-29 19:29N 47°34' W 122°21'2 1.8
2015-Jul-29 18:34N 47°36' W 122°22'0 0.7
2015-Jul-29 18:29N 47°36' W 122°22'2 2.6
2015-Jul-29 17:33N 47°33' W 122°21'0 0.1
2015-Jul-29 17:29N 47°33' W 122°21'0 0.0
2015-Jul-29 15:42N 47°33' W 122°21'1 5.4
2015-Jul-29 15:33N 47°34' W 122°21'0 6.8
2015-Jul-29 15:32N 47°34' W 122°21'1 1.3
2015-Jul-29 14:33N 47°35' W 122°21'0 0.3
2015-Jul-29 14:32N 47°35' W 122°21'2 1.9
2015-Jul-29 13:33N 47°34' W 122°21'0 5.6
2015-Jul-29 13:32N 47°33' W 122°21'1 0.1
2015-Jul-29 03:56N 47°34' W 122°21'1 3.2
2015-Jul-29 03:33N 47°35' W 122°22'0 7.8
2015-Jul-29 03:31N 47°35' W 122°22'1 1.1
2015-Jul-29 02:33N 47°34' W 122°21'0 0.0
2015-Jul-29 02:31N 47°34' W 122°21'1 1.3
2015-Jul-29 01:33N 47°35' W 122°22'0 7.6
2015-Jul-29 01:31N 47°35' W 122°22'1 1.3
2015-Jul-29 00:33N 47°34' W 122°21'0 7.0
2015-Jul-29 00:31N 47°34' W 122°21'0 0.1
2015-Jul-28 23:33N 47°34' W 122°21'0 3.0
2015-Jul-28 23:31N 47°34' W 122°21'1 0.8
2015-Jul-28 22:33N 47°33' W 122°21'0 0.0
2015-Jul-28 22:31N 47°33' W 122°21'0 0.0
2015-Jul-28 21:33N 47°33' W 122°21'0 2.9
2015-Jul-28 21:30N 47°33' W 122°21'1 1.6
2015-Jul-28 20:33N 47°35' W 122°22'0 6.9
2015-Jul-28 20:30N 47°35' W 122°22'1 1.2
2015-Jul-28 19:33N 47°34' W 122°21'0 7.5
2015-Jul-28 19:30N 47°34' W 122°21'0 0.1
2015-Jul-28 18:33N 47°34' W 122°21'0 0.0
2015-Jul-28 04:28N 47°34' W 122°21'0 0.0
2015-Jul-28 04:27N 47°34' W 122°21'0 0.5
2015-Jul-28 03:33N 47°34' W 122°21'0 0.0
2015-Jul-28 03:33N 47°34' W 122°21'0 0.4
2015-Jul-28 02:33N 47°34' W 122°21'0 0.0
2015-Jul-28 02:33N 47°34' W 122°21'0 0.0
2015-Jul-28 01:33N 47°34' W 122°21'0 0.0
2015-Jul-28 01:33N 47°34' W 122°21'0 0.0
2015-Jul-28 00:33N 47°34' W 122°21'0 0.0
2015-Jul-28 00:33N 47°34' W 122°21'0 0.3
2015-Jul-27 23:33N 47°34' W 122°21'0 6.4
2015-Jul-27 23:32N 47°34' W 122°21'1 0.5
2015-Jul-27 22:33N 47°33' W 122°21'0 0.3
2015-Jul-27 22:32N 47°33' W 122°21'1 0.9
2015-Jul-27 21:33N 47°34' W 122°21'0 0.0
2015-Jul-27 21:32N 47°34' W 122°21'0 0.0
2015-Jul-27 20:33N 47°34' W 122°21'0 0.4
2015-Jul-27 20:32N 47°34' W 122°21'0 0.5
2015-Jul-27 19:33N 47°34' W 122°21'0 5.9
2015-Jul-27 19:32N 47°34' W 122°21'1 1.2
2015-Jul-27 18:33N 47°33' W 122°20'0 0.0
2015-Jul-27 18:32N 47°33' W 122°20'3 2.8
2015-Jul-27 17:33N 47°35' W 122°21'0 0.0
2015-Jul-27 17:32N 47°35' W 122°21'1 0.9
2015-Jul-27 16:33N 47°35' W 122°22'0 0.3
2015-Jul-27 16:32N 47°35' W 122°22'0 0.0
2015-Jul-27 15:33N 47°35' W 122°22'0 0.3
2015-Jul-27 15:32N 47°35' W 122°22'2 1.8
2015-Jul-27 14:33N 47°34' W 122°21'0 0.0
2015-Jul-27 14:31N 47°34' W 122°21'0 0.1
2015-Jul-27 13:33N 47°34' W 122°21'0 0.2
2015-Jul-27 13:31N 47°34' W 122°21'0 0.0
2015-Jul-27 12:33N 47°34' W 122°21'0 0.0
2015-Jul-27 12:32N 47°34' W 122°21'0 0.0
2015-Jul-27 11:33N 47°34' W 122°21'0 0.0
2015-Jul-27 11:31N 47°34' W 122°21'0 0.0
2015-Jul-27 10:33N 47°34' W 122°21'0 0.2
2015-Jul-27 10:31N 47°34' W 122°21'0 0.0
2015-Jul-27 09:33N 47°34' W 122°21'0 0.0
2015-Jul-27 09:31N 47°34' W 122°21'1 1.1
2015-Jul-27 08:33N 47°33' W 122°20'0 0.0
2015-Jul-27 08:31N 47°33' W 122°20'3 2.8
2015-Jul-27 07:33N 47°36' W 122°22'0 0.0
2015-Jul-27 07:31N 47°36' W 122°22'0 0.1
2015-Jul-27 06:33N 47°35' W 122°22'0 0.0
2015-Jul-27 06:31N 47°35' W 122°22'1 2.3
2015-Jul-27 06:06N 47°35' W 122°22'2 3.3
2015-Jul-27 05:33N 47°33' W 122°20'1 1.4
2015-Jul-27 04:33N 47°34' W 122°21'0 7.7
2015-Jul-27 04:31N 47°34' W 122°21'0 0.2
2015-Jul-27 03:33N 47°34' W 122°21'0 0.0
2015-Jul-27 03:31N 47°34' W 122°21'0 0.0
2015-Jul-27 02:33N 47°34' W 122°21'0 0.1
2015-Jul-27 02:30N 47°34' W 122°21'0 0.0
2015-Jul-27 01:33N 47°34' W 122°21'0 0.1
2015-Jul-27 01:30N 47°34' W 122°21'0 0.0
2015-Jul-27 00:33N 47°34' W 122°21'0 0.0
2015-Jul-27 00:30N 47°34' W 122°21'0 0.0
2015-Jul-26 23:33N 47°34' W 122°21'0 0.1
2015-Jul-26 23:30N 47°34' W 122°21'0 0.0
2015-Jul-26 22:33N 47°34' W 122°21'0 0.1
2015-Jul-26 22:30N 47°34' W 122°21'0 0.0
2015-Jul-26 21:33N 47°34' W 122°21'0 0.0
2015-Jul-26 21:30N 47°34' W 122°21'0 0.0
2015-Jul-26 20:33N 47°34' W 122°21'0 0.0
2015-Jul-26 20:30N 47°34' W 122°21'0 0.0
2015-Jul-26 19:33N 47°34' W 122°21'0 0.0
2015-Jul-26 19:30N 47°34' W 122°21'0 0.0
2015-Jul-26 18:33N 47°34' W 122°21'0 0.0
2015-Jul-26 18:30N 47°34' W 122°21'0 0.0
2015-Jul-26 17:33N 47°34' W 122°21'0 0.1
2015-Jul-26 17:30N 47°34' W 122°21'0 0.0
2015-Jul-26 16:33N 47°34' W 122°21'0 0.0
2015-Jul-26 16:29N 47°34' W 122°21'0 0.0
2015-Jul-26 15:33N 47°34' W 122°21'0 0.0
2015-Jul-26 14:30N 47°34' W 122°21'0 0.0
2015-Jul-26 13:05N 47°34' W 122°21'0 0.1
2015-Jul-26 12:59N 47°34' W 122°21'0 0.0
2015-Jul-26 12:33N 47°34' W 122°21'0 0.1
2015-Jul-26 12:29N 47°34' W 122°21'0 0.0
2015-Jul-26 11:33N 47°34' W 122°21'0 0.1
2015-Jul-26 11:29N 47°34' W 122°21'0 0.0
2015-Jul-26 10:33N 47°34' W 122°21'0 0.0
2015-Jul-26 10:29N 47°34' W 122°21'0 0.0
2015-Jul-26 09:33N 47°34' W 122°21'0 0.1
2015-Jul-26 09:28N 47°34' W 122°21'0 0.0
2015-Jul-26 08:34N 47°34' W 122°21'0 0.7
2015-Jul-26 08:33N 47°34' W 122°21'0 0.0
2015-Jul-26 07:33N 47°34' W 122°21'0 0.0
2015-Jul-26 07:33N 47°34' W 122°21'0 0.0
2015-Jul-26 06:33N 47°34' W 122°21'0 0.0
2015-Jul-26 06:33N 47°34' W 122°21'0 0.0
2015-Jul-26 06:08N 47°34' W 122°21'0 0.0
2015-Jul-26 05:33N 47°34' W 122°21'0 0.0
2015-Jul-26 04:33N 47°34' W 122°21'0 0.0
2015-Jul-26 04:33N 47°34' W 122°21'0 0.0
2015-Jul-26 03:33N 47°34' W 122°21'0 0.0
2015-Jul-26 03:33N 47°34' W 122°21'0 0.1
2015-Jul-26 02:33N 47°34' W 122°21'0 0.0
2015-Jul-26 02:32N 47°34' W 122°21'0 0.2
2015-Jul-26 01:33N 47°34' W 122°21'0 1.4
2015-Jul-26 01:33N 47°34' W 122°21'0 0.2
2015-Jul-26 00:33N 47°34' W 122°21'0 0.0
2015-Jul-26 00:33N 47°34' W 122°21'0 0.0
2015-Jul-25 23:33N 47°34' W 122°21'0 0.0
2015-Jul-25 23:33N 47°34' W 122°21'1 1.4
2015-Jul-25 22:33N 47°33' W 122°20'0 1.0
2015-Jul-25 22:32N 47°33' W 122°20'3 3.1
2015-Jul-25 21:33N 47°36' W 122°22'0 8.4
2015-Jul-25 21:32N 47°35' W 122°22'2 1.6
2015-Jul-25 20:33N 47°34' W 122°21'0 0.3
2015-Jul-25 20:32N 47°34' W 122°21'0 0.0
2015-Jul-25 19:33N 47°34' W 122°21'0 0.0
2015-Jul-25 19:32N 47°34' W 122°21'0 0.0
2015-Jul-25 18:33N 47°34' W 122°21'0 0.0
2015-Jul-25 18:32N 47°34' W 122°21'0 0.0
2015-Jul-25 17:33N 47°34' W 122°21'0 0.0
2015-Jul-25 17:32N 47°34' W 122°21'0 0.0
2015-Jul-25 16:33N 47°34' W 122°21'0 0.2
2015-Jul-25 16:32N 47°34' W 122°21'0 0.0
2015-Jul-25 15:33N 47°34' W 122°21'0 0.3
2015-Jul-25 15:32N 47°34' W 122°21'0 0.0
2015-Jul-25 14:33N 47°34' W 122°21'0 0.0
2015-Jul-25 14:32N 47°34' W 122°21'0 0.0
2015-Jul-25 13:33N 47°34' W 122°21'0 0.3
2015-Jul-25 13:32N 47°34' W 122°21'0 0.0
2015-Jul-25 12:33N 47°34' W 122°21'0 0.0
2015-Jul-25 12:31N 47°34' W 122°21'0 0.0
2015-Jul-25 11:33N 47°34' W 122°21'0 0.2
2015-Jul-25 11:31N 47°34' W 122°21'0 0.0
2015-Jul-25 10:33N 47°34' W 122°21'0 0.0
2015-Jul-25 10:31N 47°34' W 122°21'0 0.0
2015-Jul-25 09:33N 47°34' W 122°21'0 0.2
2015-Jul-25 09:31N 47°34' W 122°21'0 0.0
2015-Jul-25 08:33N 47°34' W 122°21'0 0.2
2015-Jul-25 08:31N 47°34' W 122°21'0 0.0
2015-Jul-25 07:33N 47°34' W 122°21'0 0.0
2015-Jul-25 07:31N 47°34' W 122°21'0 0.0
2015-Jul-25 06:33N 47°34' W 122°21'0 0.2
2015-Jul-25 06:31N 47°34' W 122°21'0 0.0
2015-Jul-25 06:06N 47°34' W 122°21'0 0.0
2015-Jul-25 05:33N 47°34' W 122°21'0 0.0
2015-Jul-25 04:33N 47°34' W 122°21'0 0.1
2015-Jul-25 04:30N 47°34' W 122°21'1 1.1
2015-Jul-25 03:33N 47°33' W 122°20'0 0.0
2015-Jul-25 03:30N 47°33' W 122°20'1 1.1
2015-Jul-25 02:33N 47°34' W 122°21'0 4.7
2015-Jul-25 02:30N 47°34' W 122°21'1 0.8
2015-Jul-25 01:33N 47°33' W 122°21'0 0.2
2015-Jul-25 01:30N 47°33' W 122°21'0 0.5
2015-Jul-25 00:33N 47°33' W 122°20'0 0.1
2015-Jul-25 00:25N 47°33' W 122°20'3 4.1
2015-Jul-24 23:33N 47°36' W 122°22'0 3.6
2015-Jul-24 23:30N 47°36' W 122°22'2 2.4
2015-Jul-24 22:33N 47°34' W 122°21'0 0.0
2015-Jul-24 22:25N 47°34' W 122°21'0 0.0
2015-Jul-24 21:33N 47°34' W 122°21'0 0.0
2015-Jul-24 21:09N 47°34' W 122°21'1 1.0
2015-Jul-24 20:33N 47°34' W 122°21'1 9.1
2015-Jul-24 20:30N 47°33' W 122°20'1 0.6
2015-Jul-24 19:33N 47°33' W 122°20'0 3.3
2015-Jul-24 19:29N 47°33' W 122°20'3 2.9
2015-Jul-24 18:33N 47°35' W 122°21'0 0.6
2015-Jul-24 18:29N 47°35' W 122°21'1 0.8
2015-Jul-24 17:33N 47°35' W 122°21'0 5.3
2015-Jul-24 17:29N 47°34' W 122°21'0 0.3
2015-Jul-24 16:33N 47°34' W 122°21'0 0.1
2015-Jul-24 16:29N 47°34' W 122°21'0 0.0
2015-Jul-23 21:16N 47°34' W 122°21'0 8.3
2015-Jul-23 21:15N 47°34' W 122°21'1 1.1
2015-Jul-23 20:33N 47°35' W 122°21'0 5.3
2015-Jul-23 20:28N 47°35' W 122°22'3 2.8
2015-Jul-23 19:33N 47°33' W 122°20'0 3.2
2015-Jul-23 19:24N 47°32' W 122°20'4 4.7
2015-Jul-23 18:33N 47°36' W 122°22'0 7.7
2015-Jul-23 18:33N 47°36' W 122°22'1 0.5
2015-Jul-23 17:33N 47°35' W 122°22'0 8.9
2015-Jul-23 17:33N 47°35' W 122°22'1 0.1
2015-Jul-23 02:29N 47°34' W 122°21'0 5.0
2015-Jul-23 02:26N 47°34' W 122°21'1 1.2
2015-Jul-23 01:33N 47°33' W 122°20'0 0.2
2015-Jul-23 01:31N 47°33' W 122°20'2 1.6
2015-Jul-23 00:33N 47°34' W 122°21'0 8.0
2015-Jul-23 00:31N 47°35' W 122°22'1 0.7
2015-Jul-22 23:33N 47°34' W 122°21'0 9.1
2015-Jul-22 23:30N 47°34' W 122°21'1 0.6
2015-Jul-22 22:33N 47°34' W 122°21'0 0.0
2015-Jul-22 22:30N 47°34' W 122°21'1 1.2
2015-Jul-22 21:33N 47°35' W 122°21'0 0.0
2015-Jul-22 21:29N 47°35' W 122°21'0 0.0
2015-Jul-22 20:33N 47°35' W 122°21'0 0.0
2015-Jul-22 20:29N 47°35' W 122°21'1 0.7
2015-Jul-22 19:33N 47°35' W 122°22'0 0.0
2015-Jul-22 19:33N 47°35' W 122°22'2 2.5
2015-Jul-22 18:33N 47°33' W 122°21'0 0.0
2015-Jul-22 18:33N 47°33' W 122°21'1 0.9
2015-Jul-22 17:33N 47°34' W 122°21'0 0.0
2015-Jul-22 17:33N 47°34' W 122°21'0 0.0
2015-Jul-22 16:33N 47°34' W 122°21'0 0.4
2015-Jul-22 16:32N 47°34' W 122°21'1 0.6
2015-Jul-22 15:33N 47°34' W 122°21'0 9.2
2015-Jul-22 15:32N 47°34' W 122°21'0 0.1
2015-Jul-22 14:33N 47°34' W 122°21'0 5.3
2015-Jul-22 14:31N 47°34' W 122°21'0 0.0
2015-Jul-22 00:30N 47°34' W 122°21'0 7.8
2015-Jul-22 00:28N 47°34' W 122°21'2 2.1
2015-Jul-21 23:33N 47°35' W 122°22'0 0.0
2015-Jul-21 23:33N 47°35' W 122°22'2 1.5
2015-Jul-21 22:31N 47°34' W 122°21'0 0.1
2015-Jul-21 22:28N 47°34' W 122°21'0 0.0
2015-Jul-21 21:33N 47°34' W 122°21'0 0.0
2015-Jul-21 21:32N 47°34' W 122°21'0 0.0
2015-Jul-21 20:33N 47°34' W 122°21'0 0.0
2015-Jul-21 20:33N 47°34' W 122°21'1 0.8
2015-Jul-21 19:33N 47°33' W 122°21'0 7.7
2015-Jul-21 19:32N 47°33' W 122°21'3 3.0
2015-Jul-21 18:33N 47°36' W 122°22'0 2.5
2015-Jul-21 18:32N 47°36' W 122°22'0 0.5
2015-Jul-21 17:33N 47°35' W 122°22'0 0.3
2015-Jul-21 17:32N 47°35' W 122°22'1 0.8
2015-Jul-21 16:33N 47°35' W 122°22'0 6.9
2015-Jul-21 16:32N 47°35' W 122°22'1 0.9
2015-Jul-21 15:33N 47°35' W 122°22'0 0.4
2015-Jul-21 15:32N 47°35' W 122°22'2 2.3
2015-Jul-21 14:33N 47°33' W 122°21'0 8.3
2015-Jul-21 14:31N 47°34' W 122°21'  

Dump ship's entire track history